sensor_id;sensor_type;location;lat;lon;timestamp;pressure;altitude;pressure_sealevel;temperature;humidity
78562;BME280;68963;52.138;5.446;2023-05-07T00:00:05;101804.06;;;14.58;100.00
78562;BME280;68963;52.138;5.446;2023-05-07T00:02:35;101801.03;;;14.46;100.00
78562;BME280;68963;52.138;5.446;2023-05-07T00:05:02;101798.97;;;14.42;100.00
78562;BME280;68963;52.138;5.446;2023-05-07T00:07:29;101799.16;;;14.40;100.00
78562;BME280;68963;52.138;5.446;2023-05-07T00:09:56;101808.75;;;14.41;100.00
78562;BME280;68963;52.138;5.446;2023-05-07T00:12:22;101806.84;;;14.35;100.00
78562;BME280;68963;52.138;5.446;2023-05-07T00:14:49;101810.50;;;14.34;100.00
78562;BME280;68963;52.138;5.446;2023-05-07T00:17:15;101817.63;;;14.34;100.00
78562;BME280;68963;52.138;5.446;2023-05-07T00:19:42;101810.88;;;14.31;100.00
78562;BME280;68963;52.138;5.446;2023-05-07T00:22:08;101804.31;;;14.27;100.00
78562;BME280;68963;52.138;5.446;2023-05-07T00:24:35;101802.03;;;14.24;100.00
78562;BME280;68963;52.138;5.446;2023-05-07T00:27:01;101800.41;;;14.23;100.00
78562;BME280;68963;52.138;5.446;2023-05-07T00:29:27;101808.34;;;14.23;100.00
78562;BME280;68963;52.138;5.446;2023-05-07T00:31:54;101807.34;;;14.24;100.00
78562;BME280;68963;52.138;5.446;2023-05-07T00:34:21;101794.00;;;14.17;100.00
78562;BME280;68963;52.138;5.446;2023-05-07T00:36:48;101789.94;;;14.15;100.00
78562;BME280;68963;52.138;5.446;2023-05-07T00:39:14;101795.22;;;14.15;100.00
78562;BME280;68963;52.138;5.446;2023-05-07T00:41:41;101797.44;;;14.11;100.00
78562;BME280;68963;52.138;5.446;2023-05-07T00:44:07;101791.50;;;14.09;100.00
78562;BME280;68963;52.138;5.446;2023-05-07T00:46:35;101788.03;;;14.09;100.00
78562;BME280;68963;52.138;5.446;2023-05-07T00:49:02;101790.06;;;14.07;100.00
78562;BME280;68963;52.138;5.446;2023-05-07T00:51:30;101778.16;;;14.02;100.00
78562;BME280;68963;52.138;5.446;2023-05-07T00:53:56;101782.41;;;13.97;100.00
78562;BME280;68963;52.138;5.446;2023-05-07T00:56:23;101782.56;;;13.95;100.00
78562;BME280;68963;52.138;5.446;2023-05-07T00:58:50;101775.06;;;13.99;100.00
78562;BME280;68963;52.138;5.446;2023-05-07T01:01:16;101780.19;;;14.00;100.00
78562;BME280;68963;52.138;5.446;2023-05-07T01:03:43;101774.09;;;14.00;100.00
78562;BME280;68963;52.138;5.446;2023-05-07T01:06:10;101782.03;;;14.00;100.00
78562;BME280;68963;52.138;5.446;2023-05-07T01:08:40;101779.81;;;14.04;100.00
78562;BME280;68963;52.138;5.446;2023-05-07T01:11:07;101778.81;;;14.05;100.00
78562;BME280;68963;52.138;5.446;2023-05-07T01:13:35;101768.78;;;14.00;100.00
78562;BME280;68963;52.138;5.446;2023-05-07T01:16:03;101782.41;;;13.97;100.00
78562;BME280;68963;52.138;5.446;2023-05-07T01:18:30;101775.72;;;14.01;100.00
78562;BME280;68963;52.138;5.446;2023-05-07T01:20:58;101771.59;;;13.98;100.00
78562;BME280;68963;52.138;5.446;2023-05-07T01:23:25;101784.03;;;13.98;100.00
78562;BME280;68963;52.138;5.446;2023-05-07T01:25:53;101774.63;;;13.95;100.00
78562;BME280;68963;52.138;5.446;2023-05-07T01:28:20;101773.75;;;13.88;100.00
78562;BME280;68963;52.138;5.446;2023-05-07T01:30:52;101777.13;;;13.82;100.00
78562;BME280;68963;52.138;5.446;2023-05-07T01:33:21;101782.81;;;13.79;100.00
78562;BME280;68963;52.138;5.446;2023-05-07T01:35:53;101780.34;;;13.77;100.00
78562;BME280;68963;52.138;5.446;2023-05-07T01:38:21;101780.81;;;13.81;100.00
78562;BME280;68963;52.138;5.446;2023-05-07T01:40:49;101780.03;;;13.87;100.00
78562;BME280;68963;52.138;5.446;2023-05-07T01:43:15;101779.66;;;13.90;100.00
78562;BME280;68963;52.138;5.446;2023-05-07T01:45:42;101778.66;;;13.91;100.00
78562;BME280;68963;52.138;5.446;2023-05-07T01:48:10;101780.31;;;13.92;100.00
78562;BME280;68963;52.138;5.446;2023-05-07T01:50:38;101777.03;;;13.90;100.00
78562;BME280;68963;52.138;5.446;2023-05-07T01:53:05;101784.59;;;13.93;100.00
78562;BME280;68963;52.138;5.446;2023-05-07T01:55:31;101782.16;;;13.92;100.00
78562;BME280;68963;52.138;5.446;2023-05-07T01:57:58;101781.75;;;13.95;100.00
78562;BME280;68963;52.138;5.446;2023-05-07T02:00:24;101776.28;;;13.96;100.00
78562;BME280;68963;52.138;5.446;2023-05-07T02:02:51;101776.91;;;13.98;100.00
78562;BME280;68963;52.138;5.446;2023-05-07T02:05:19;101777.09;;;13.97;100.00
78562;BME280;68963;52.138;5.446;2023-05-07T02:07:45;101777.28;;;13.95;100.00
78562;BME280;68963;52.138;5.446;2023-05-07T02:10:12;101778.13;;;13.96;100.00
78562;BME280;68963;52.138;5.446;2023-05-07T02:12:39;101778.13;;;13.96;100.00
78562;BME280;68963;52.138;5.446;2023-05-07T02:15:06;101776.44;;;13.95;100.00
78562;BME280;68963;52.138;5.446;2023-05-07T02:17:32;101782.16;;;13.92;100.00
78562;BME280;68963;52.138;5.446;2023-05-07T02:19:59;101774.81;;;13.94;100.00
78562;BME280;68963;52.138;5.446;2023-05-07T02:22:26;101777.09;;;13.97;100.00
78562;BME280;68963;52.138;5.446;2023-05-07T02:24:52;101774.25;;;13.98;100.00
78562;BME280;68963;52.138;5.446;2023-05-07T02:27:19;101772.25;;;14.00;100.00
78562;BME280;68963;52.138;5.446;2023-05-07T02:29:46;101767.75;;;14.01;100.00
78562;BME280;68963;52.138;5.446;2023-05-07T02:32:12;101768.34;;;13.96;100.00
78562;BME280;68963;52.138;5.446;2023-05-07T02:34:39;101772.63;;;13.97;100.00
78562;BME280;68963;52.138;5.446;2023-05-07T02:37:05;101775.06;;;13.99;100.00
78562;BME280;68963;52.138;5.446;2023-05-07T02:39:32;101779.75;;;13.97;100.00
78562;BME280;68963;52.138;5.446;2023-05-07T02:41:59;101779.09;;;13.95;100.00
78562;BME280;68963;52.138;5.446;2023-05-07T02:44:25;101778.13;;;13.96;100.00
78562;BME280;68963;52.138;5.446;2023-05-07T02:46:51;101783.59;;;13.94;100.00
78562;BME280;68963;52.138;5.446;2023-05-07T02:49:18;101778.28;;;13.94;100.00
78562;BME280;68963;52.138;5.446;2023-05-07T02:51:44;101773.34;;;13.91;100.00
78562;BME280;68963;52.138;5.446;2023-05-07T02:54:11;101772.91;;;13.88;100.00
78562;BME280;68963;52.138;5.446;2023-05-07T02:56:37;101766.63;;;13.89;100.00
78562;BME280;68963;52.138;5.446;2023-05-07T02:59:04;101776.50;;;13.80;100.00
78562;BME280;68963;52.138;5.446;2023-05-07T03:01:30;101777.78;;;13.69;100.00
78562;BME280;68963;52.138;5.446;2023-05-07T03:03:57;101767.75;;;13.65;100.00
78562;BME280;68963;52.138;5.446;2023-05-07T03:06:23;101765.88;;;13.59;100.00
78562;BME280;68963;52.138;5.446;2023-05-07T03:08:50;101760.66;;;13.50;100.00
78562;BME280;68963;52.138;5.446;2023-05-07T03:11:16;101772.91;;;13.51;100.00
78562;BME280;68963;52.138;5.446;2023-05-07T03:13:43;101775.00;;;13.56;100.00
78562;BME280;68963;52.138;5.446;2023-05-07T03:16:10;101768.50;;;13.59;100.00
78562;BME280;68963;52.138;5.446;2023-05-07T03:18:36;101771.97;;;13.59;100.00
78562;BME280;68963;52.138;5.446;2023-05-07T03:21:03;101774.22;;;13.62;100.00
78562;BME280;68963;52.138;5.446;2023-05-07T03:23:29;101766.13;;;13.64;100.00
78562;BME280;68963;52.138;5.446;2023-05-07T03:25:56;101762.00;;;13.61;100.00
78562;BME280;68963;52.138;5.446;2023-05-07T03:28:22;101764.84;;;13.60;100.00
78562;BME280;68963;52.138;5.446;2023-05-07T03:30:49;101770.97;;;13.60;100.00
78562;BME280;68963;52.138;5.446;2023-05-07T03:33:16;101763.84;;;13.61;100.00
78562;BME280;68963;52.138;5.446;2023-05-07T03:35:42;101772.44;;;13.63;100.00
78562;BME280;68963;52.138;5.446;2023-05-07T03:38:09;101770.41;;;13.65;100.00
78562;BME280;68963;52.138;5.446;2023-05-07T03:40:35;101764.50;;;13.63;100.00
78562;BME280;68963;52.138;5.446;2023-05-07T03:43:01;101768.31;;;13.60;100.00
78562;BME280;68963;52.138;5.446;2023-05-07T03:45:28;101773.97;;;13.57;100.00
78562;BME280;68963;52.138;5.446;2023-05-07T03:47:54;101769.84;;;13.54;100.00
78562;BME280;68963;52.138;5.446;2023-05-07T03:50:21;101775.81;;;13.57;100.00
78562;BME280;68963;52.138;5.446;2023-05-07T03:52:48;101766.03;;;13.57;100.00
78562;BME280;68963;52.138;5.446;2023-05-07T03:55:14;101767.88;;;13.57;100.00
78562;BME280;68963;52.138;5.446;2023-05-07T03:57:41;101774.63;;;13.59;100.00
78562;BME280;68963;52.138;5.446;2023-05-07T04:00:07;101778.09;;;13.60;100.00
78562;BME280;68963;52.138;5.446;2023-05-07T04:02:35;101780.09;;;13.58;100.00
78562;BME280;68963;52.138;5.446;2023-05-07T04:05:02;101778.19;;;13.51;100.00
78562;BME280;68963;52.138;5.446;2023-05-07T04:07:28;101781.19;;;13.48;100.00
78562;BME280;68963;52.138;5.446;2023-05-07T04:09:55;101783.84;;;13.48;100.00
78562;BME280;68963;52.138;5.446;2023-05-07T04:12:21;101782.84;;;13.49;100.00
78562;BME280;68963;52.138;5.446;2023-05-07T04:14:48;101776.06;;;13.47;100.00
78562;BME280;68963;52.138;5.446;2023-05-07T04:17:14;101788.13;;;13.49;100.00
78562;BME280;68963;52.138;5.446;2023-05-07T04:19:41;101788.59;;;13.53;100.00
78562;BME280;68963;52.138;5.446;2023-05-07T04:22:11;101793.88;;;13.53;100.00
78562;BME280;68963;52.138;5.446;2023-05-07T04:24:38;101786.75;;;13.53;100.00
78562;BME280;68963;52.138;5.446;2023-05-07T04:27:04;101793.53;;;13.56;100.00
78562;BME280;68963;52.138;5.446;2023-05-07T04:29:32;101792.69;;;13.56;100.00
78562;BME280;68963;52.138;5.446;2023-05-07T04:31:59;101793.06;;;13.52;100.00
78562;BME280;68963;52.138;5.446;2023-05-07T04:34:25;101796.72;;;13.51;100.00
78562;BME280;68963;52.138;5.446;2023-05-07T04:36:52;101790.78;;;13.49;100.00
78562;BME280;68963;52.138;5.446;2023-05-07T04:39:18;101795.72;;;13.52;100.00
78562;BME280;68963;52.138;5.446;2023-05-07T04:41:45;101794.69;;;13.53;100.00
78562;BME280;68963;52.138;5.446;2023-05-07T04:44:11;101792.69;;;13.56;100.00
78562;BME280;68963;52.138;5.446;2023-05-07T04:46:38;101786.75;;;13.53;100.00
78562;BME280;68963;52.138;5.446;2023-05-07T04:49:04;101796.31;;;13.54;100.00
78562;BME280;68963;52.138;5.446;2023-05-07T04:51:31;101793.53;;;13.56;100.00
78562;BME280;68963;52.138;5.446;2023-05-07T04:53:59;101794.06;;;13.51;100.00
78562;BME280;68963;52.138;5.446;2023-05-07T04:56:28;101804.28;;;13.54;100.00
78562;BME280;68963;52.138;5.446;2023-05-07T04:58:55;101803.66;;;13.52;100.00
78562;BME280;68963;52.138;5.446;2023-05-07T05:01:22;101797.53;;;13.52;100.00
78562;BME280;68963;52.138;5.446;2023-05-07T05:03:48;101799.63;;;13.57;100.00
78562;BME280;68963;52.138;5.446;2023-05-07T05:06:15;101808.84;;;13.61;100.00
78562;BME280;68963;52.138;5.446;2023-05-07T05:08:41;101808.66;;;13.62;100.00
78562;BME280;68963;52.138;5.446;2023-05-07T05:11:08;101802.72;;;13.60;100.00
78562;BME280;68963;52.138;5.446;2023-05-07T05:13:34;101808.84;;;13.61;100.00
78562;BME280;68963;52.138;5.446;2023-05-07T05:16:01;101813.94;;;13.62;100.00
78562;BME280;68963;52.138;5.446;2023-05-07T05:18:27;101809.28;;;13.64;100.00
78562;BME280;68963;52.138;5.446;2023-05-07T05:20:54;101809.50;;;13.63;100.00
78562;BME280;68963;52.138;5.446;2023-05-07T05:23:20;101815.41;;;13.65;100.00
78562;BME280;68963;52.138;5.446;2023-05-07T05:25:47;101820.53;;;13.66;100.00
78562;BME280;68963;52.138;5.446;2023-05-07T05:28:13;101813.88;;;13.70;100.00
78562;BME280;68963;52.138;5.446;2023-05-07T05:30:40;101819.78;;;13.72;100.00
78562;BME280;68963;52.138;5.446;2023-05-07T05:33:06;101824.53;;;13.77;100.00
78562;BME280;68963;52.138;5.446;2023-05-07T05:35:33;101817.41;;;13.77;100.00
78562;BME280;68963;52.138;5.446;2023-05-07T05:38:01;101823.97;;;13.82;100.00
78562;BME280;68963;52.138;5.446;2023-05-07T05:40:28;101829.72;;;13.85;100.00
78562;BME280;68963;52.138;5.446;2023-05-07T05:42:54;101835.50;;;13.89;100.00
78562;BME280;68963;52.138;5.446;2023-05-07T05:45:21;101834.47;;;13.90;100.00
78562;BME280;68963;52.138;5.446;2023-05-07T05:47:48;101835.13;;;13.92;100.00
78562;BME280;68963;52.138;5.446;2023-05-07T05:50:14;101841.69;;;13.96;100.00
78562;BME280;68963;52.138;5.446;2023-05-07T05:52:41;101843.22;;;14.05;100.00
78562;BME280;68963;52.138;5.446;2023-05-07T05:55:08;101847.78;;;14.11;100.00
78562;BME280;68963;52.138;5.446;2023-05-07T05:57:35;101845.75;;;14.13;100.00
78562;BME280;68963;52.138;5.446;2023-05-07T06:00:02;101850.31;;;14.19;100.00
78562;BME280;68963;52.138;5.446;2023-05-07T06:02:29;101851.84;;;14.29;100.00
78562;BME280;68963;52.138;5.446;2023-05-07T06:04:56;101849.63;;;14.32;100.00
78562;BME280;68963;52.138;5.446;2023-05-07T06:07:22;101850.06;;;14.36;100.00
78562;BME280;68963;52.138;5.446;2023-05-07T06:09:49;101860.75;;;14.42;100.00
78562;BME280;68963;52.138;5.446;2023-05-07T06:12:15;101862.00;;;14.46;100.00
78562;BME280;68963;52.138;5.446;2023-05-07T06:14:45;101862.81;;;14.47;100.00
78562;BME280;68963;52.138;5.446;2023-05-07T06:17:11;101863.03;;;14.45;100.00
78562;BME280;68963;52.138;5.446;2023-05-07T06:19:38;101860.56;;;14.44;100.00
78562;BME280;68963;52.138;5.446;2023-05-07T06:22:04;101855.88;;;14.46;100.00
78562;BME280;68963;52.138;5.446;2023-05-07T06:24:31;101862.09;;;14.53;100.00
78562;BME280;68963;52.138;5.446;2023-05-07T06:26:57;101863.81;;;14.61;100.00
78562;BME280;68963;52.138;5.446;2023-05-07T06:29:25;101862.25;;;14.66;100.00
78562;BME280;68963;52.138;5.446;2023-05-07T06:31:53;101865.53;;;14.68;100.00
78562;BME280;68963;52.138;5.446;2023-05-07T06:34:20;101851.19;;;14.63;100.00
78562;BME280;68963;52.138;5.446;2023-05-07T06:36:46;101859.78;;;14.65;100.00
78562;BME280;68963;52.138;5.446;2023-05-07T06:39:12;101856.13;;;14.66;100.00
78562;BME280;68963;52.138;5.446;2023-05-07T06:41:39;101868.16;;;14.68;100.00
78562;BME280;68963;52.138;5.446;2023-05-07T06:44:05;101868.44;;;14.73;100.00
78562;BME280;68963;52.138;5.446;2023-05-07T06:46:32;101868.25;;;14.75;100.00
78562;BME280;68963;52.138;5.446;2023-05-07T06:48:58;101866.78;;;14.72;100.00
78562;BME280;68963;52.138;5.446;2023-05-07T06:51:25;101867.78;;;14.71;100.00
78562;BME280;68963;52.138;5.446;2023-05-07T06:53:53;101866.78;;;14.72;100.00
78562;BME280;68963;52.138;5.446;2023-05-07T06:56:19;101875.75;;;14.71;100.00
78562;BME280;68963;52.138;5.446;2023-05-07T06:58:46;101873.75;;;14.73;100.00
78562;BME280;68963;52.138;5.446;2023-05-07T07:01:12;101866.59;;;14.74;100.00
78562;BME280;68963;52.138;5.446;2023-05-07T07:03:39;101872.09;;;14.72;100.00
78562;BME280;68963;52.138;5.446;2023-05-07T07:06:06;101872.09;;;14.72;100.00
78562;BME280;68963;52.138;5.446;2023-05-07T07:08:32;101866.22;;;14.77;100.00
78562;BME280;68963;52.138;5.446;2023-05-07T07:10:59;101858.94;;;14.86;100.00
78562;BME280;68963;52.138;5.446;2023-05-07T07:13:26;101858.00;;;14.93;100.00
78562;BME280;68963;52.138;5.446;2023-05-07T07:15:53;101865.63;;;15.03;100.00
78562;BME280;68963;52.138;5.446;2023-05-07T07:18:20;101857.97;;;15.15;100.00
78562;BME280;68963;52.138;5.446;2023-05-07T07:20:46;101864.44;;;15.34;100.00
78562;BME280;68963;52.138;5.446;2023-05-07T07:23:13;101859.06;;;15.55;100.00
78562;BME280;68963;52.138;5.446;2023-05-07T07:25:41;101857.75;;;15.79;100.00
78562;BME280;68963;52.138;5.446;2023-05-07T07:28:07;101857.84;;;15.92;100.00
78562;BME280;68963;52.138;5.446;2023-05-07T07:30:34;101854.53;;;15.90;100.00
78562;BME280;68963;52.138;5.446;2023-05-07T07:33:00;101851.50;;;15.93;100.00
78562;BME280;68963;52.138;5.446;2023-05-07T07:35:29;101860.69;;;15.98;100.00
78562;BME280;68963;52.138;5.446;2023-05-07T07:37:56;101866.06;;;16.04;100.00
78562;BME280;68963;52.138;5.446;2023-05-07T07:40:23;101868.50;;;15.99;100.00
78562;BME280;68963;52.138;5.446;2023-05-07T07:42:53;101872.53;;;15.88;100.00
78562;BME280;68963;52.138;5.446;2023-05-07T07:45:20;101867.41;;;15.87;100.00
78562;BME280;68963;52.138;5.446;2023-05-07T07:47:46;101871.47;;;15.83;100.00
78562;BME280;68963;52.138;5.446;2023-05-07T07:50:13;101869.88;;;15.88;100.00
78562;BME280;68963;52.138;5.446;2023-05-07T07:52:57;101874.63;;;16.00;100.00
78562;BME280;68963;52.138;5.446;2023-05-07T07:55:23;101878.16;;;16.13;100.00
78562;BME280;68963;52.138;5.446;2023-05-07T07:57:50;101879.00;;;16.21;100.00
78562;BME280;68963;52.138;5.446;2023-05-07T08:00:16;101883.34;;;16.35;100.00
78562;BME280;68963;52.138;5.446;2023-05-07T08:02:43;101884.00;;;16.57;100.00
78562;BME280;68963;52.138;5.446;2023-05-07T08:05:10;101884.63;;;16.65;100.00
78562;BME280;68963;52.138;5.446;2023-05-07T08:07:36;101884.00;;;16.63;100.00
78562;BME280;68963;52.138;5.446;2023-05-07T08:10:03;101887.91;;;16.67;100.00
78562;BME280;68963;52.138;5.446;2023-05-07T08:12:30;101881.19;;;16.72;100.00
78562;BME280;68963;52.138;5.446;2023-05-07T08:14:56;101888.50;;;16.63;100.00
78562;BME280;68963;52.138;5.446;2023-05-07T08:17:23;101882.19;;;16.57;100.00
78562;BME280;68963;52.138;5.446;2023-05-07T08:19:50;101891.38;;;16.61;100.00
78562;BME280;68963;52.138;5.446;2023-05-07T08:22:16;101894.88;;;16.69;100.00
78562;BME280;68963;52.138;5.446;2023-05-07T08:24:44;101894.66;;;16.70;100.00
78562;BME280;68963;52.138;5.446;2023-05-07T08:27:11;101892.22;;;16.69;100.00
78562;BME280;68963;52.138;5.446;2023-05-07T08:29:38;101891.38;;;16.61;100.00
78562;BME280;68963;52.138;5.446;2023-05-07T08:32:04;101892.41;;;16.54;100.00
78562;BME280;68963;52.138;5.446;2023-05-07T08:34:31;101888.66;;;16.41;100.00
78562;BME280;68963;52.138;5.446;2023-05-07T08:36:57;101898.25;;;16.29;100.00
78562;BME280;68963;52.138;5.446;2023-05-07T08:39:24;101884.50;;;16.19;100.00
78562;BME280;68963;52.138;5.446;2023-05-07T08:41:55;101888.63;;;16.22;100.00
78562;BME280;68963;52.138;5.446;2023-05-07T08:44:22;101897.28;;;16.43;100.00
78562;BME280;68963;52.138;5.446;2023-05-07T08:46:53;101894.22;;;16.60;100.00
78562;BME280;68963;52.138;5.446;2023-05-07T08:49:20;101902.63;;;16.63;100.00
78562;BME280;68963;52.138;5.446;2023-05-07T08:51:47;101898.34;;;16.62;100.00
78562;BME280;68963;52.138;5.446;2023-05-07T08:54:16;101900.78;;;16.64;100.00
78562;BME280;68963;52.138;5.446;2023-05-07T08:56:43;101897.31;;;16.63;100.00
78562;BME280;68963;52.138;5.446;2023-05-07T08:59:09;101887.91;;;16.67;100.00
78562;BME280;68963;52.138;5.446;2023-05-07T09:01:36;101900.19;;;16.69;100.00
78562;BME280;68963;52.138;5.446;2023-05-07T09:04:03;101908.38;;;16.67;100.00
78562;BME280;68963;52.138;5.446;2023-05-07T09:06:30;101905.78;;;16.80;100.00
78562;BME280;68963;52.138;5.446;2023-05-07T09:08:57;101904.56;;;16.96;100.00
78562;BME280;68963;52.138;5.446;2023-05-07T09:11:24;101902.31;;;17.06;100.00
78562;BME280;68963;52.138;5.446;2023-05-07T09:13:55;101898.63;;;16.94;100.00
78562;BME280;68963;52.138;5.446;2023-05-07T09:16:22;101894.91;;;16.82;100.00
78562;BME280;68963;52.138;5.446;2023-05-07T09:18:53;101888.75;;;16.75;100.00
78562;BME280;68963;52.138;5.446;2023-05-07T09:21:21;101885.91;;;16.76;100.00
78562;BME280;68963;52.138;5.446;2023-05-07T09:23:52;101893.50;;;16.79;100.00
78562;BME280;68963;52.138;5.446;2023-05-07T09:26:21;101893.63;;;16.71;100.00
78562;BME280;68963;52.138;5.446;2023-05-07T09:28:48;101895.75;;;16.76;100.00
78562;BME280;68963;52.138;5.446;2023-05-07T09:31:14;101897.38;;;16.83;100.00
78562;BME280;68963;52.138;5.446;2023-05-07T09:33:41;101902.50;;;16.85;100.00
78562;BME280;68963;52.138;5.446;2023-05-07T09:36:08;101899.81;;;16.78;100.00
78562;BME280;68963;52.138;5.446;2023-05-07T09:38:37;101899.22;;;16.76;100.00
78562;BME280;68963;52.138;5.446;2023-05-07T09:41:09;101896.28;;;16.71;100.00
78562;BME280;68963;52.138;5.446;2023-05-07T09:43:37;101899.38;;;16.68;100.00
78562;BME280;68963;52.138;5.446;2023-05-07T09:46:14;101903.25;;;16.65;100.00
78562;BME280;68963;52.138;5.446;2023-05-07T09:48:43;101904.88;;;16.66;100.00
78562;BME280;68963;52.138;5.446;2023-05-07T09:51:30;101904.88;;;16.66;100.00
78562;BME280;68963;52.138;5.446;2023-05-07T09:54:01;101902.06;;;16.75;100.00
78562;BME280;68963;52.138;5.446;2023-05-07T09:56:30;101905.97;;;16.79;100.00
78562;BME280;68963;52.138;5.446;2023-05-07T09:58:59;101909.47;;;16.79;100.00
78562;BME280;68963;52.138;5.446;2023-05-07T10:01:27;101902.47;;;16.78;100.00
78562;BME280;68963;52.138;5.446;2023-05-07T10:03:54;101903.72;;;16.82;100.00
78562;BME280;68963;52.138;5.446;2023-05-07T10:06:23;101914.59;;;16.94;100.00
78562;BME280;68963;52.138;5.446;2023-05-07T10:08:51;101916.00;;;16.97;100.00
78562;BME280;68963;52.138;5.446;2023-05-07T10:11:19;101913.97;;;16.99;100.00
78562;BME280;68963;52.138;5.446;2023-05-07T10:13:47;101911.09;;;17.07;100.00
78562;BME280;68963;52.138;5.446;2023-05-07T10:16:14;101905.38;;;17.17;100.00
78562;BME280;68963;52.138;5.446;2023-05-07T10:18:42;101918.91;;;17.28;100.00
78562;BME280;68963;52.138;5.446;2023-05-07T10:21:19;101919.31;;;17.38;100.00
78562;BME280;68963;52.138;5.446;2023-05-07T10:23:55;101922.56;;;17.47;97.26
78562;BME280;68963;52.138;5.446;2023-05-07T10:26:25;101915.56;;;17.59;99.17
78562;BME280;68963;52.138;5.446;2023-05-07T10:28:58;101913.53;;;17.68;98.19
78562;BME280;68963;52.138;5.446;2023-05-07T10:34:17;101914.13;;;17.83;97.89
78562;BME280;68963;52.138;5.446;2023-05-07T10:36:46;101916.56;;;17.92;99.46
78562;BME280;68963;52.138;5.446;2023-05-07T10:39:14;101919.34;;;18.17;96.82
78562;BME280;68963;52.138;5.446;2023-05-07T10:41:40;101918.44;;;18.29;96.30
78562;BME280;68963;52.138;5.446;2023-05-07T10:44:07;101918.00;;;18.39;94.42
78562;BME280;68963;52.138;5.446;2023-05-07T10:46:33;101914.38;;;18.65;96.18
78562;BME280;68963;52.138;5.446;2023-05-07T10:51:32;101917.81;;;18.79;94.06
78562;BME280;68963;52.138;5.446;2023-05-07T10:56:39;101920.94;;;19.01;90.17
78562;BME280;68963;52.138;5.446;2023-05-07T11:01:58;101924.47;;;18.95;88.60
78562;BME280;68963;52.138;5.446;2023-05-07T11:04:25;101914.22;;;18.92;88.03
78562;BME280;68963;52.138;5.446;2023-05-07T11:09:56;101910.63;;;19.04;90.86
78562;BME280;68963;52.138;5.446;2023-05-07T11:15:11;101915.94;;;19.11;91.90
78562;BME280;68963;52.138;5.446;2023-05-07T11:17:58;101913.84;;;19.13;89.40
78562;BME280;68963;52.138;5.446;2023-05-07T11:20:51;101915.22;;;19.22;88.43
78562;BME280;68963;52.138;5.446;2023-05-07T11:26:07;101930.31;;;19.53;88.68
78562;BME280;68963;52.138;5.446;2023-05-07T11:28:39;101922.88;;;19.37;87.39
78562;BME280;68963;52.138;5.446;2023-05-07T11:31:06;101931.53;;;19.33;87.29
78562;BME280;68963;52.138;5.446;2023-05-07T11:33:34;101925.47;;;19.44;88.32
78562;BME280;68963;52.138;5.446;2023-05-07T11:36:03;101925.03;;;19.72;87.14
78562;BME280;68963;52.138;5.446;2023-05-07T11:38:30;101920.94;;;19.88;87.43
78562;BME280;68963;52.138;5.446;2023-05-07T11:40:58;101923.34;;;19.96;86.77
78562;BME280;68963;52.138;5.446;2023-05-07T11:43:27;101918.81;;;19.96;85.61
78562;BME280;68963;52.138;5.446;2023-05-07T11:45:53;101924.72;;;19.98;86.43
78562;BME280;68963;52.138;5.446;2023-05-07T11:48:21;101924.41;;;20.07;86.08
78562;BME280;68963;52.138;5.446;2023-05-07T11:50:52;101918.91;;;20.20;86.69
78562;BME280;68963;52.138;5.446;2023-05-07T11:53:20;101923.75;;;20.30;83.36
78562;BME280;68963;52.138;5.446;2023-05-07T11:55:46;101920.91;;;20.24;84.99
78562;BME280;68963;52.138;5.446;2023-05-07T11:58:20;101919.03;;;20.25;84.87
78562;BME280;68963;52.138;5.446;2023-05-07T12:00:51;101923.97;;;20.10;84.92
78562;BME280;68963;52.138;5.446;2023-05-07T12:03:18;101926.25;;;20.24;82.25
78562;BME280;68963;52.138;5.446;2023-05-07T12:05:48;101927.31;;;20.23;82.09
78562;BME280;68963;52.138;5.446;2023-05-07T12:08:18;101920.41;;;20.16;82.88
78562;BME280;68963;52.138;5.446;2023-05-07T12:10:45;101922.09;;;20.28;81.43
78562;BME280;68963;52.138;5.446;2023-05-07T12:13:21;101924.22;;;20.57;82.42
78562;BME280;68963;52.138;5.446;2023-05-07T12:15:52;101922.75;;;20.72;83.80
78562;BME280;68963;52.138;5.446;2023-05-07T12:18:19;101918.72;;;20.82;80.78
78562;BME280;68963;52.138;5.446;2023-05-07T12:20:46;101922.31;;;20.87;79.43
78562;BME280;68963;52.138;5.446;2023-05-07T12:23:13;101921.41;;;21.05;78.59
78562;BME280;68963;52.138;5.446;2023-05-07T12:25:41;101919.69;;;20.99;81.63
78562;BME280;68963;52.138;5.446;2023-05-07T12:28:17;101918.53;;;21.07;78.96
78562;BME280;68963;52.138;5.446;2023-05-07T12:30:45;101914.59;;;21.44;79.88
78562;BME280;68963;52.138;5.446;2023-05-07T12:33:16;101923.66;;;21.32;78.13
78562;BME280;68963;52.138;5.446;2023-05-07T12:35:43;101917.38;;;21.26;79.51
78562;BME280;68963;52.138;5.446;2023-05-07T12:38:11;101917.25;;;21.21;80.59
78562;BME280;68963;52.138;5.446;2023-05-07T12:40:49;101917.03;;;21.34;78.62
78562;BME280;68963;52.138;5.446;2023-05-07T12:43:24;101915.00;;;21.88;77.64
78562;BME280;68963;52.138;5.446;2023-05-07T12:45:57;101918.44;;;22.12;73.85
78562;BME280;68963;52.138;5.446;2023-05-07T12:48:24;101915.59;;;21.79;70.67
78562;BME280;68963;52.138;5.446;2023-05-07T12:50:53;101922.72;;;21.61;73.88
78562;BME280;68963;52.138;5.446;2023-05-07T12:53:23;101916.53;;;21.84;71.55
78562;BME280;68963;52.138;5.446;2023-05-07T12:55:51;101925.78;;;21.77;71.88
78562;BME280;68963;52.138;5.446;2023-05-07T12:58:21;101920.63;;;21.75;72.18
78562;BME280;68963;52.138;5.446;2023-05-07T13:00:49;101929.94;;;21.84;73.40
78562;BME280;68963;52.138;5.446;2023-05-07T13:03:30;101930.00;;;22.25;72.62